Time;durP1;ratioP1;P1;durP2;ratioP2;P2;SDS_P1;SDS_P2;PMS_P1;PMS_P2;Temp;Humidity;BMP_temperature;BMP_pressure;BME280_temperature;BME280_humidity;BME280_pressure;Samples;Min_cycle;Max_cycle;Signal;HPM_P1;HPM_P2
2021/04/27 00:00:16;;;;;;;1.57;1.25;;;6.80;98.40;;;;;;1976371;73;21508;-74
2021/04/27 00:02:42;;;;;;;3.00;1.00;;;6.70;98.20;;;;;;1976340;73;21537;-74
2021/04/27 00:05:08;;;;;;;1.95;1.15;;;6.70;99.90;;;;;;1976396;73;21151;-74
2021/04/27 00:07:34;;;;;;;2.52;1.20;;;6.70;97.80;;;;;;1976342;73;21159;-74
2021/04/27 00:10:00;;;;;;;3.08;1.35;;;6.70;97.50;;;;;;1976371;73;21081;-74
2021/04/27 00:12:26;;;;;;;2.17;1.25;;;6.60;99.20;;;;;;1976438;73;21069;-74
2021/04/27 00:14:52;;;;;;;4.55;1.10;;;6.60;98.30;;;;;;1976470;73;21170;-74
2021/04/27 00:17:18;;;;;;;3.00;0.93;;;6.60;98.80;;;;;;1976356;73;21077;-74
2021/04/27 00:19:45;;;;;;;1.37;0.93;;;6.60;99.80;;;;;;1976375;73;21152;-74
2021/04/27 00:22:11;;;;;;;1.27;0.88;;;6.50;99.90;;;;;;1976333;72;21149;-73
2021/04/27 00:24:37;;;;;;;0.90;0.90;;;6.30;99.90;;;;;;1982739;71;21516;-74
2021/04/27 00:27:03;;;;;;;2.55;1.12;;;6.30;99.90;;;;;;1976390;73;21504;-74
2021/04/27 00:29:29;;;;;;;1.25;1.10;;;6.20;99.90;;;;;;1982002;71;21574;-73
2021/04/27 00:31:55;;;;;;;0.85;0.80;;;6.10;99.90;;;;;;1976259;73;21027;-74
2021/04/27 00:34:21;;;;;;;1.10;1.00;;;6.10;99.90;;;;;;1976478;73;21094;-74
2021/04/27 00:36:47;;;;;;;2.22;1.00;;;6.10;99.90;;;;;;1976248;73;21085;-74
2021/04/27 00:39:14;;;;;;;0.80;0.80;;;6.00;99.90;;;;;;1976510;73;21089;-73
2021/04/27 00:41:40;;;;;;;2.98;1.05;;;6.00;99.90;;;;;;1976229;73;21174;-72
2021/04/27 00:44:06;;;;;;;0.95;0.78;;;5.90;99.90;;;;;;1976483;73;21097;-74
2021/04/27 00:46:32;;;;;;;1.00;0.90;;;5.80;99.90;;;;;;1976444;72;21571;-74
2021/04/27 00:48:59;;;;;;;1.10;1.00;;;5.80;99.90;;;;;;1976364;73;21541;-74
2021/04/27 00:51:25;;;;;;;6.80;1.42;;;5.80;99.90;;;;;;1976371;73;21502;-74
2021/04/27 00:53:51;;;;;;;1.55;0.95;;;5.80;99.90;;;;;;1976334;73;21094;-74
2021/04/27 00:56:18;;;;;;;1.12;1.02;;;5.80;99.90;;;;;;1976336;73;21090;-74
2021/04/27 00:58:44;;;;;;;2.12;1.20;;;5.80;99.90;;;;;;1976266;72;21174;-74
2021/04/27 01:01:11;;;;;;;4.42;1.32;;;5.80;99.90;;;;;;1976285;73;21516;-74
2021/04/27 01:03:37;;;;;;;2.90;1.15;;;5.80;99.90;;;;;;1949648;73;21060;-75
2021/04/27 01:06:03;;;;;;;1.95;1.02;;;5.70;99.90;;;;;;1976328;72;21097;-75
2021/04/27 01:08:29;;;;;;;1.67;0.88;;;5.70;99.90;;;;;;1976354;73;21218;-74
2021/04/27 01:10:56;;;;;;;7.87;1.20;;;5.80;99.90;;;;;;1976446;73;21562;-75
2021/04/27 01:13:22;;;;;;;2.10;1.45;;;5.70;99.90;;;;;;1976214;73;21536;-74
2021/04/27 01:15:48;;;;;;;1.65;1.10;;;5.60;99.90;;;;;;1976614;72;21472;-75
2021/04/27 01:18:14;;;;;;;0.72;0.72;;;5.50;99.90;;;;;;1976216;73;21086;-75
2021/04/27 01:20:40;;;;;;;2.00;0.65;;;5.60;99.90;;;;;;1976456;73;21144;-74
2021/04/27 01:23:06;;;;;;;0.93;0.90;;;5.60;99.90;;;;;;1976161;73;21060;-75
2021/04/27 01:25:32;;;;;;;2.40;1.00;;;5.70;99.90;;;;;;1976434;73;21093;-75
2021/04/27 01:27:58;;;;;;;1.40;1.10;;;5.70;99.90;;;;;;1976195;73;21158;-74
2021/04/27 01:30:26;;;;;;;3.08;0.90;;;5.50;99.90;;;;;;1976322;73;21078;-75
2021/04/27 01:32:52;;;;;;;1.07;0.88;;;5.50;99.90;;;;;;1976278;72;21185;-73
2021/04/27 01:35:18;;;;;;;2.95;1.77;;;5.50;99.90;;;;;;1976312;73;21086;-73
2021/04/27 01:37:44;;;;;;;5.03;1.17;;;5.40;99.90;;;;;;1976285;73;21081;-74
2021/04/27 01:40:10;;;;;;;3.62;1.32;;;5.40;99.90;;;;;;1976335;72;21121;-72
2021/04/27 01:42:36;;;;;;;1.45;1.00;;;5.30;99.90;;;;;;1976202;73;21060;-74
2021/04/27 01:45:03;;;;;;;5.53;1.37;;;5.30;99.90;;;;;;1976434;73;21097;-74
2021/04/27 01:47:29;;;;;;;1.02;0.98;;;5.30;99.90;;;;;;1976313;73;21489;-74
2021/04/27 01:49:55;;;;;;;1.67;1.12;;;5.30;99.90;;;;;;1976435;73;21587;-74
2021/04/27 01:55:06;;;;;;;2.35;1.27;;;5.30;99.90;;;;;;1953800;73;21101;-73
2021/04/27 01:57:32;;;;;;;1.22;1.02;;;5.20;99.90;;;;;;1955522;73;21159;-74
2021/04/27 01:59:58;;;;;;;1.00;0.90;;;5.10;99.90;;;;;;1955622;73;21119;-75
2021/04/27 02:02:25;;;;;;;4.10;1.37;;;5.10;99.90;;;;;;1955606;73;21060;-75
2021/04/27 02:04:51;;;;;;;1.10;0.93;;;5.10;99.90;;;;;;1955553;73;21120;-74
2021/04/27 02:07:17;;;;;;;2.10;0.95;;;5.10;99.90;;;;;;1955521;73;21066;-75
2021/04/27 02:09:43;;;;;;;4.15;1.27;;;5.20;99.90;;;;;;1955572;73;21077;-74
2021/04/27 02:12:09;;;;;;;0.95;0.90;;;5.20;99.90;;;;;;1955525;73;21148;-74
2021/04/27 02:14:35;;;;;;;9.13;1.20;;;5.20;99.90;;;;;;1955440;73;21478;-74
2021/04/27 02:17:01;;;;;;;1.12;1.02;;;5.20;99.90;;;;;;1955622;73;21478;-74
2021/04/27 02:22:13;;;;;;;3.65;1.40;;;5.20;99.90;;;;;;1919830;75;21094;-73
2021/04/27 02:24:39;;;;;;;7.53;1.45;;;5.00;99.90;;;;;;1882212;76;21090;-74
2021/04/27 02:27:05;;;;;;;3.42;1.30;;;4.90;99.90;;;;;;1882293;76;21091;-73
2021/04/27 02:29:31;;;;;;;3.25;1.12;;;4.90;99.90;;;;;;1882312;76;21209;-73
2021/04/27 02:31:57;;;;;;;1.45;0.93;;;5.00;99.90;;;;;;1882302;76;21185;-74
2021/04/27 02:34:23;;;;;;;2.30;1.20;;;5.00;99.90;;;;;;1882183;76;21074;-74
2021/04/27 02:36:50;;;;;;;8.75;1.30;;;4.90;99.90;;;;;;1882168;76;21219;-74
2021/04/27 02:39:16;;;;;;;1.20;1.10;;;4.90;99.90;;;;;;1882168;76;21072;-74
2021/04/27 02:41:42;;;;;;;3.17;1.32;;;4.90;99.90;;;;;;1882137;76;21042;-73
2021/04/27 02:44:08;;;;;;;0.80;0.80;;;4.90;99.90;;;;;;1882262;76;21066;-73
2021/04/27 02:46:34;;;;;;;1.27;1.10;;;4.80;99.90;;;;;;1882193;76;21070;-73
2021/04/27 02:49:00;;;;;;;2.12;1.12;;;4.80;99.90;;;;;;1882270;76;21115;-74
2021/04/27 02:51:26;;;;;;;1.70;1.02;;;4.80;99.90;;;;;;1882059;76;21144;-74
2021/04/27 02:53:52;;;;;;;1.27;1.17;;;4.90;99.90;;;;;;1882268;76;21184;-73
2021/04/27 02:56:19;;;;;;;1.67;1.30;;;4.90;99.90;;;;;;1882055;76;21080;-74
2021/04/27 02:58:45;;;;;;;6.35;1.32;;;4.90;99.90;;;;;;1882186;76;21443;-75
2021/04/27 03:01:11;;;;;;;1.40;1.02;;;4.90;99.90;;;;;;1882155;76;21496;-74
2021/04/27 03:03:37;;;;;;;1.10;1.00;;;4.90;99.90;;;;;;1882117;76;21047;-74
2021/04/27 03:06:03;;;;;;;1.25;1.12;;;4.80;99.90;;;;;;1882262;76;21098;-73
2021/04/27 03:08:29;;;;;;;1.20;1.10;;;4.80;99.90;;;;;;1882240;76;21146;-73
2021/04/27 03:10:55;;;;;;;1.52;1.00;;;4.80;99.90;;;;;;1882260;76;21102;-74
2021/04/27 03:13:22;;;;;;;2.65;1.12;;;4.70;99.90;;;;;;1882154;76;21137;-74
2021/04/27 03:15:48;;;;;;;2.97;1.50;;;4.70;99.90;;;;;;1882142;76;21155;-74
2021/04/27 03:18:15;;;;;;;2.25;1.20;;;4.70;99.90;;;;;;1882253;76;21172;-74
2021/04/27 03:20:43;;;;;;;1.27;1.17;;;4.80;99.90;;;;;;1884278;75;21151;-74
2021/04/27 03:23:09;;;;;;;1.00;0.90;;;4.80;99.90;;;;;;1882126;76;21119;-74
2021/04/27 03:25:35;;;;;;;9.28;1.67;;;4.80;99.90;;;;;;1880187;76;21075;-74
2021/04/27 03:28:01;;;;;;;1.35;1.25;;;4.80;99.90;;;;;;1866803;76;21144;-74
2021/04/27 03:30:27;;;;;;;1.50;1.32;;;4.80;99.90;;;;;;1882352;76;21094;-75
2021/04/27 03:32:53;;;;;;;5.65;1.10;;;4.70;99.90;;;;;;1882308;76;21103;-74
2021/04/27 03:35:19;;;;;;;1.30;1.05;;;4.70;99.90;;;;;;1881993;76;21090;-74
2021/04/27 03:37:46;;;;;;;1.60;1.30;;;4.70;99.90;;;;;;1882177;76;21140;-73
2021/04/27 03:40:12;;;;;;;1.00;0.97;;;4.70;99.90;;;;;;1875175;76;21090;-74
2021/04/27 03:42:38;;;;;;;1.35;1.02;;;4.60;99.90;;;;;;1882102;75;21588;-74
2021/04/27 03:45:04;;;;;;;2.77;1.30;;;4.60;99.90;;;;;;1882087;76;21544;-75
2021/04/27 03:47:30;;;;;;;1.90;1.32;;;4.60;99.90;;;;;;1882087;76;21591;-74
2021/04/27 03:49:56;;;;;;;1.92;1.12;;;4.60;99.90;;;;;;1882215;76;21160;-74
2021/04/27 03:52:22;;;;;;;2.47;1.30;;;4.50;99.90;;;;;;1882084;76;21051;-74
2021/04/27 03:54:48;;;;;;;1.20;1.10;;;4.50;99.90;;;;;;1882118;76;21051;-75
2021/04/27 03:57:14;;;;;;;4.00;1.40;;;4.50;99.90;;;;;;1882099;76;21074;-75
2021/04/27 03:59:41;;;;;;;2.15;1.20;;;4.50;99.90;;;;;;1882126;76;21083;-74
2021/04/27 04:02:07;;;;;;;2.42;1.47;;;4.40;99.90;;;;;;1882163;76;21086;-75
2021/04/27 04:04:33;;;;;;;1.32;1.10;;;4.40;99.90;;;;;;1882311;76;21107;-75
2021/04/27 04:06:59;;;;;;;1.98;1.40;;;4.40;99.90;;;;;;1882212;76;21127;-74
2021/04/27 04:09:25;;;;;;;2.05;1.20;;;4.40;99.90;;;;;;1882304;76;21165;-75
2021/04/27 04:11:51;;;;;;;2.72;1.20;;;4.40;99.90;;;;;;1882254;76;21103;-73
2021/04/27 04:14:17;;;;;;;1.15;1.15;;;4.40;99.90;;;;;;1882318;76;21123;-73
2021/04/27 04:16:43;;;;;;;1.98;1.57;;;4.50;99.90;;;;;;1882244;76;21462;-75
2021/04/27 04:19:10;;;;;;;1.85;1.40;;;4.50;99.90;;;;;;1882272;76;21602;-75
2021/04/27 04:21:36;;;;;;;3.60;1.67;;;4.50;99.90;;;;;;1882088;76;21513;-74
2021/04/27 04:24:02;;;;;;;10.65;1.25;;;4.50;99.90;;;;;;1882308;76;21074;-74
2021/04/27 04:26:28;;;;;;;3.15;1.65;;;4.40;99.90;;;;;;1882105;76;21078;-74
2021/04/27 04:28:54;;;;;;;3.00;1.62;;;4.50;99.90;;;;;;1882331;76;21099;-75
2021/04/27 04:31:20;;;;;;;2.10;1.55;;;4.40;99.90;;;;;;1882260;76;21155;-75
2021/04/27 04:33:46;;;;;;;1.87;1.32;;;4.40;99.90;;;;;;1882194;76;21092;-72
2021/04/27 04:36:12;;;;;;;3.02;1.15;;;4.40;99.90;;;;;;1882311;76;21091;-73
2021/04/27 04:38:38;;;;;;;5.20;1.82;;;4.50;99.90;;;;;;1882334;76;21177;-74
2021/04/27 04:41:05;;;;;;;2.35;1.50;;;4.50;99.90;;;;;;1882326;76;21107;-74
2021/04/27 04:43:31;;;;;;;5.37;1.40;;;4.50;99.90;;;;;;1882181;76;21089;-74
2021/04/27 04:45:58;;;;;;;2.98;1.60;;;4.50;99.90;;;;;;1882418;76;21146;-74
2021/04/27 04:48:24;;;;;;;10.65;1.60;;;4.60;99.90;;;;;;1882134;76;21082;-74
2021/04/27 04:50:50;;;;;;;3.70;1.60;;;4.60;99.90;;;;;;1882202;76;21150;-74
2021/04/27 04:53:16;;;;;;;5.47;1.52;;;4.60;99.90;;;;;;1882192;76;21096;-74
2021/04/27 04:55:42;;;;;;;7.40;1.52;;;4.70;99.90;;;;;;1882192;76;21094;-74
2021/04/27 04:58:09;;;;;;;2.08;1.57;;;4.70;99.90;;;;;;1882182;76;21111;-72
2021/04/27 05:00:35;;;;;;;2.85;1.27;;;4.70;99.90;;;;;;1882288;76;21111;-73
2021/04/27 05:03:01;;;;;;;2.70;1.90;;;4.80;99.90;;;;;;1882024;76;21148;-75
2021/04/27 05:05:27;;;;;;;3.67;1.75;;;4.80;99.90;;;;;;1882292;76;21192;-76
2021/04/27 05:07:59;;;;;;;1.82;1.50;;;4.90;99.90;;;;;;1889487;76;21082;-74
2021/04/27 05:10:24;;;;;;;6.78;1.80;;;5.00;99.90;;;;;;1882383;75;21140;-75
2021/04/27 05:12:52;;;;;;;3.10;1.40;;;5.10;99.90;;;;;;1882481;76;21123;-74
2021/04/27 05:15:18;;;;;;;3.25;1.55;;;5.20;99.90;;;;;;1882429;76;21160;-73
2021/04/27 05:17:44;;;;;;;1.37;1.25;;;5.30;99.90;;;;;;1882545;76;21051;-73
2021/04/27 05:20:10;;;;;;;3.80;1.27;;;5.40;99.90;;;;;;1882189;76;21121;-74
2021/04/27 05:22:36;;;;;;;3.35;1.67;;;5.50;99.90;;;;;;1882125;76;21164;-75
2021/04/27 05:25:02;;;;;;;1.65;1.52;;;5.50;99.90;;;;;;1882238;76;21184;-76
2021/04/27 05:27:28;;;;;;;2.42;1.57;;;5.80;99.90;;;;;;1882106;76;21562;-77
2021/04/27 05:29:55;;;;;;;1.27;1.02;;;5.90;99.90;;;;;;1882149;76;21531;-80
2021/04/27 05:32:22;;;;;;;1.02;1.00;;;6.00;99.90;;;;;;1882324;76;21518;-78
2021/04/27 05:34:48;;;;;;;2.15;1.27;;;6.10;99.90;;;;;;1882394;76;21107;-79
2021/04/27 05:37:14;;;;;;;1.20;1.10;;;6.20;99.90;;;;;;1882026;76;21495;-76
2021/04/27 05:39:40;;;;;;;1.70;1.50;;;6.30;99.90;;;;;;1882264;76;21655;-79
2021/04/27 05:42:07;;;;;;;2.00;1.55;;;6.40;99.90;;;;;;1882047;76;21078;-80
2021/04/27 05:44:33;;;;;;;9.53;1.77;;;6.50;99.90;;;;;;1882216;76;21099;-79
2021/04/27 05:46:59;;;;;;;4.67;1.40;;;6.60;99.90;;;;;;1882262;76;21092;-79
2021/04/27 05:49:25;;;;;;;10.82;1.65;;;6.60;99.90;;;;;;1882289;76;21074;-80
2021/04/27 05:51:51;;;;;;;3.08;1.57;;;6.80;99.90;;;;;;1882068;76;21199;-78
2021/04/27 05:54:17;;;;;;;3.30;1.67;;;6.80;99.90;;;;;;1881988;76;21139;-77
2021/04/27 05:56:43;;;;;;;1.20;1.10;;;7.00;99.90;;;;;;1882215;76;21109;-78
2021/04/27 05:59:10;;;;;;;2.50;1.20;;;7.20;99.90;;;;;;1882014;76;21125;-77
2021/04/27 06:01:36;;;;;;;9.20;1.87;;;7.20;99.90;;;;;;1882163;76;21233;-77
2021/04/27 06:04:03;;;;;;;3.15;1.70;;;7.50;99.90;;;;;;1882264;76;21078;-77
2021/04/27 06:06:29;;;;;;;4.20;1.62;;;7.60;99.90;;;;;;1882069;76;21088;-77
2021/04/27 06:08:55;;;;;;;3.25;1.72;;;7.60;99.90;;;;;;1882099;76;21107;-77
2021/04/27 06:11:21;;;;;;;4.78;1.70;;;7.60;99.90;;;;;;1882201;76;21107;-76
2021/04/27 06:13:47;;;;;;;2.58;1.72;;;7.80;99.90;;;;;;1882016;76;21559;-77
2021/04/27 06:16:13;;;;;;;3.55;1.67;;;8.00;99.90;;;;;;1881974;76;21074;-77
2021/04/27 06:18:39;;;;;;;4.28;1.70;;;8.00;99.90;;;;;;1881983;76;21199;-77
2021/04/27 06:21:07;;;;;;;5.50;2.00;;;8.30;99.90;;;;;;1881981;76;21084;-77
2021/04/27 06:23:33;;;;;;;2.90;2.02;;;8.40;99.90;;;;;;1881947;76;21579;-77
2021/04/27 06:25:59;;;;;;;3.10;1.57;;;8.50;99.90;;;;;;1882138;76;21459;-76
2021/04/27 06:28:25;;;;;;;2.83;1.50;;;8.60;99.90;;;;;;1882071;76;21546;-77
2021/04/27 06:30:52;;;;;;;2.15;1.55;;;8.90;99.90;;;;;;1882020;76;21074;-76
2021/04/27 06:33:18;;;;;;;2.47;1.70;;;8.90;99.90;;;;;;1882014;76;21180;-76
2021/04/27 06:35:44;;;;;;;4.25;2.12;;;9.10;99.90;;;;;;1882118;76;21153;-76
2021/04/27 06:38:16;;;;;;;3.70;2.00;;;9.00;99.90;;;;;;1882114;76;21220;-76
2021/04/27 06:40:38;;;;;;;5.42;2.15;;;9.10;99.90;;;;;;1874364;76;21196;-77
2021/04/27 06:43:04;;;;;;;7.78;2.33;;;9.00;99.90;;;;;;1875056;76;21132;-76
2021/04/27 06:45:30;;;;;;;3.33;1.80;;;8.90;99.90;;;;;;1882011;76;21102;-76
2021/04/27 06:47:56;;;;;;;6.25;2.20;;;9.20;99.90;;;;;;1881963;76;21171;-78
2021/04/27 06:50:22;;;;;;;2.70;2.00;;;9.30;99.90;;;;;;1886351;76;21179;-76
2021/04/27 06:52:48;;;;;;;7.33;2.25;;;9.40;99.90;;;;;;1881960;76;21576;-77
2021/04/27 06:55:15;;;;;;;6.45;2.33;;;9.50;99.90;;;;;;1881938;76;21486;-78
2021/04/27 06:57:41;;;;;;;4.00;1.98;;;9.60;99.90;;;;;;1881948;76;21490;-78
2021/04/27 07:00:07;;;;;;;4.37;1.95;;;9.60;99.90;;;;;;1881956;76;21086;-74
2021/04/27 07:02:33;;;;;;;6.20;2.25;;;9.60;99.90;;;;;;1867413;76;21086;-74
2021/04/27 07:04:59;;;;;;;6.50;2.87;;;9.80;99.90;;;;;;1881899;76;21148;-74
2021/04/27 07:07:25;;;;;;;7.35;2.50;;;9.80;99.90;;;;;;1869727;76;21156;-75
2021/04/27 07:09:51;;;;;;;4.95;2.10;;;9.90;99.90;;;;;;1869299;76;21082;-75
2021/04/27 07:12:17;;;;;;;5.22;2.15;;;10.20;99.90;;;;;;1880396;76;21047;-75
2021/04/27 07:14:44;;;;;;;4.60;2.17;;;10.30;99.90;;;;;;1881918;76;21084;-75
2021/04/27 07:17:10;;;;;;;10.45;2.05;;;10.40;99.90;;;;;;1882046;76;21107;-76
2021/04/27 07:19:36;;;;;;;3.33;1.75;;;10.50;99.90;;;;;;1875142;76;21145;-76
2021/04/27 07:22:02;;;;;;;6.15;2.50;;;10.80;99.80;;;;;;1881940;76;21019;-75
2021/04/27 07:24:28;;;;;;;3.17;2.15;;;11.00;99.90;;;;;;1881985;76;21167;-75
2021/04/27 07:26:54;;;;;;;7.00;2.58;;;11.20;99.20;;;;;;1882021;76;21168;-74
2021/04/27 07:29:20;;;;;;;4.12;2.08;;;10.80;99.20;;;;;;1881889;76;21133;-77
2021/04/27 07:31:46;;;;;;;5.00;2.37;;;10.80;99.00;;;;;;1882026;76;21564;-76
2021/04/27 07:34:13;;;;;;;3.98;2.20;;;11.00;98.20;;;;;;1882021;76;21078;-77
2021/04/27 07:36:39;;;;;;;3.25;1.85;;;11.60;97.90;;;;;;1881844;76;21143;-76
2021/04/27 07:39:05;;;;;;;6.87;2.12;;;11.60;96.40;;;;;;1869844;76;21147;-76
2021/04/27 07:44:16;;;;;;;6.53;2.37;;;11.80;96.30;;;;;;1873984;76;21096;-77
2021/04/27 07:46:42;;;;;;;5.58;2.33;;;12.40;94.30;;;;;;1873935;76;21113;-76
2021/04/27 07:49:09;;;;;;;6.35;2.52;;;12.30;93.80;;;;;;1841038;78;21142;-76
2021/04/27 07:51:35;;;;;;;3.65;2.47;;;12.70;92.30;;;;;;1873918;76;21046;-77
2021/04/27 07:54:01;;;;;;;4.15;2.37;;;12.70;91.60;;;;;;1873797;76;21073;-76
2021/04/27 07:56:29;;;;;;;3.65;2.27;;;13.00;91.10;;;;;;1873702;76;21131;-77
2021/04/27 07:58:55;;;;;;;5.33;2.45;;;13.10;91.60;;;;;;1873774;76;21103;-77
2021/04/27 08:01:21;;;;;;;5.85;2.37;;;13.30;90.60;;;;;;1873814;76;21050;-77
2021/04/27 08:03:48;;;;;;;3.40;2.00;;;13.70;91.00;;;;;;1873734;76;21055;-77
2021/04/27 08:06:14;;;;;;;2.95;2.15;;;14.10;89.20;;;;;;1873803;76;21135;-76
2021/04/27 08:08:40;;;;;;;5.05;2.05;;;14.30;87.10;;;;;;1873802;76;21074;-76
2021/04/27 08:11:06;;;;;;;3.70;2.27;;;14.30;85.90;;;;;;1873826;76;21070;-76
2021/04/27 08:13:32;;;;;;;6.83;2.27;;;14.60;84.80;;;;;;1873825;76;21139;-77
2021/04/27 08:15:58;;;;;;;5.58;2.70;;;14.70;83.70;;;;;;1873679;76;21046;-77
2021/04/27 08:18:24;;;;;;;5.20;3.00;;;14.20;82.70;;;;;;1874627;76;21152;-77
2021/04/27 08:20:50;;;;;;;6.58;2.35;;;14.50;85.20;;;;;;1873721;76;21043;-77
2021/04/27 08:23:17;;;;;;;5.47;2.60;;;14.90;82.20;;;;;;1873826;76;21139;-76
2021/04/27 08:25:43;;;;;;;5.22;2.42;;;14.50;81.30;;;;;;1873656;76;21175;-77
2021/04/27 08:28:09;;;;;;;4.45;2.27;;;14.80;79.70;;;;;;1873796;76;21074;-77
2021/04/27 08:30:35;;;;;;;5.05;2.22;;;14.70;80.00;;;;;;1873809;76;21042;-77
2021/04/27 08:33:01;;;;;;;6.08;2.47;;;14.90;82.20;;;;;;1873790;76;21069;-77
2021/04/27 08:35:27;;;;;;;4.28;2.55;;;14.90;79.40;;;;;;1853257;76;21161;-77
2021/04/27 08:37:53;;;;;;;4.55;2.47;;;15.10;78.30;;;;;;1843468;78;21585;-77
2021/04/27 08:40:20;;;;;;;5.33;2.20;;;14.30;80.30;;;;;;1843852;77;21487;-76
2021/04/27 08:42:46;;;;;;;3.95;2.30;;;14.20;81.80;;;;;;1843488;78;21130;-77
2021/04/27 08:45:12;;;;;;;5.20;2.47;;;13.20;84.90;;;;;;1843675;77;21087;-76
2021/04/27 08:47:38;;;;;;;4.17;2.17;;;13.60;84.90;;;;;;1843611;77;21140;-77
2021/04/27 08:50:04;;;;;;;6.03;2.20;;;13.80;85.00;;;;;;1843561;77;21091;-75
2021/04/27 08:52:30;;;;;;;5.33;2.02;;;14.40;83.70;;;;;;1843589;78;21086;-75
2021/04/27 08:54:56;;;;;;;7.10;2.30;;;14.50;82.60;;;;;;1843618;78;21125;-74
2021/04/27 08:57:24;;;;;;;5.87;2.70;;;14.30;82.50;;;;;;1843568;78;21612;-76
2021/04/27 08:59:51;;;;;;;3.22;2.25;;;14.10;82.80;;;;;;1853194;77;21086;-75
2021/04/27 09:02:17;;;;;;;6.80;2.77;;;14.30;83.70;;;;;;1855068;76;21506;-75
2021/04/27 09:04:43;;;;;;;4.33;2.25;;;14.40;82.10;;;;;;1843737;77;21208;-75
2021/04/27 09:07:09;;;;;;;4.08;2.20;;;14.30;82.90;;;;;;1843574;78;21044;-76
2021/04/27 09:09:35;;;;;;;6.10;2.40;;;14.70;82.10;;;;;;1843563;78;21083;-77
2021/04/27 09:12:01;;;;;;;7.10;2.42;;;14.90;81.00;;;;;;1843556;78;21071;-76
2021/04/27 09:14:28;;;;;;;6.08;2.37;;;14.70;80.90;;;;;;1843530;78;21091;-76
2021/04/27 09:16:54;;;;;;;9.45;2.60;;;14.30;82.10;;;;;;1843621;78;21095;-76
2021/04/27 09:19:20;;;;;;;5.42;2.75;;;14.00;83.40;;;;;;1843509;78;21048;-76
2021/04/27 09:21:46;;;;;;;9.30;2.65;;;14.40;83.30;;;;;;1843574;78;21079;-76
2021/04/27 09:24:12;;;;;;;6.08;2.60;;;14.80;82.00;;;;;;1843387;78;21128;-76
2021/04/27 09:26:38;;;;;;;7.45;2.83;;;14.80;80.90;;;;;;1843488;78;21075;-75
2021/04/27 09:29:05;;;;;;;12.28;2.98;;;15.00;79.10;;;;;;1843183;78;21158;-76
2021/04/27 09:31:33;;;;;;;3.35;2.30;;;15.10;78.80;;;;;;1844788;78;21048;-78
2021/04/27 09:33:58;;;;;;;4.37;2.47;;;15.00;79.00;;;;;;1844687;77;21096;-77
2021/04/27 09:36:31;;;;;;;7.53;2.40;;;15.50;77.30;;;;;;1844670;78;21161;-76
2021/04/27 09:38:54;;;;;;;5.12;2.50;;;15.80;76.80;;;;;;1843255;77;21110;-76
2021/04/27 09:41:20;;;;;;;5.12;2.80;;;15.80;75.10;;;;;;1843412;78;21074;-76
2021/04/27 09:43:46;;;;;;;6.25;2.67;;;15.60;75.20;;;;;;1843604;77;21075;-76
2021/04/27 09:46:12;;;;;;;8.95;2.52;;;15.70;74.70;;;;;;1843531;78;21153;-76
2021/04/27 09:48:38;;;;;;;4.55;2.27;;;16.00;75.80;;;;;;1843503;78;21078;-76
2021/04/27 09:51:05;;;;;;;9.35;2.95;;;16.40;73.00;;;;;;1843565;78;21495;-76
2021/04/27 09:53:31;;;;;;;7.67;2.50;;;16.70;70.20;;;;;;1843352;78;21514;-76
2021/04/27 09:55:57;;;;;;;4.45;2.83;;;16.20;72.30;;;;;;1843555;78;21479;-75
2021/04/27 09:58:23;;;;;;;4.67;2.92;;;16.10;73.20;;;;;;1843427;78;21113;-75
2021/04/27 10:00:49;;;;;;;5.35;2.95;;;16.60;71.60;;;;;;1843577;78;21160;-77
2021/04/27 10:03:15;;;;;;;6.33;2.83;;;17.40;71.20;;;;;;1843406;78;21075;-77
2021/04/27 10:05:46;;;;;;;6.47;2.62;;;18.10;68.20;;;;;;1843590;78;21084;-76
2021/04/27 10:08:09;;;;;;;5.62;3.08;;;17.90;65.60;;;;;;1842536;77;21467;-76
2021/04/27 10:10:36;;;;;;;5.35;2.58;;;17.00;64.80;;;;;;1843467;78;21467;-76
2021/04/27 10:13:02;;;;;;;9.70;2.67;;;16.10;69.50;;;;;;1843613;78;21157;-76
2021/04/27 10:15:28;;;;;;;10.23;3.47;;;15.80;69.80;;;;;;1843683;78;21145;-76
2021/04/27 10:17:57;;;;;;;11.48;3.62;;;16.70;68.00;;;;;;1843639;78;21114;-76
2021/04/27 10:20:23;;;;;;;9.10;2.90;;;17.40;67.50;;;;;;1843623;78;21071;-76
2021/04/27 10:22:49;;;;;;;7.90;2.80;;;17.90;64.80;;;;;;1843474;78;21051;-77
2021/04/27 10:25:15;;;;;;;7.28;2.75;;;17.60;64.10;;;;;;1843609;78;21153;-78
2021/04/27 10:27:41;;;;;;;3.20;2.25;;;17.30;59.00;;;;;;1843604;78;21047;-77
2021/04/27 10:30:09;;;;;;;6.72;2.85;;;17.40;58.30;;;;;;1843373;77;21074;-77
2021/04/27 10:32:35;;;;;;;3.67;2.62;;;17.80;55.90;;;;;;1843300;78;21144;-76
2021/04/27 10:35:01;;;;;;;7.05;2.65;;;18.10;56.50;;;;;;1843544;78;21075;-75
2021/04/27 10:37:27;;;;;;;3.83;2.47;;;17.10;57.20;;;;;;1843682;78;21144;-76
2021/04/27 10:39:53;;;;;;;2.92;1.98;;;17.40;57.10;;;;;;1843610;78;21126;-75
2021/04/27 10:42:20;;;;;;;6.58;2.70;;;17.70;56.40;;;;;;1843629;78;21075;-76
2021/04/27 10:44:46;;;;;;;8.50;3.05;;;18.20;54.30;;;;;;1843493;78;21157;-76
2021/04/27 10:47:12;;;;;;;6.33;3.40;;;17.90;55.50;;;;;;1843512;78;21070;-75
2021/04/27 10:49:38;;;;;;;12.33;2.95;;;18.00;55.80;;;;;;1843466;78;21147;-75
2021/04/27 10:52:05;;;;;;;4.45;2.37;;;18.20;56.10;;;;;;1843491;78;21149;-75
2021/04/27 10:54:31;;;;;;;3.90;2.30;;;18.60;55.70;;;;;;1843548;78;21075;-75
2021/04/27 10:56:57;;;;;;;4.03;2.40;;;18.50;52.10;;;;;;1843594;78;21079;-75
2021/04/27 10:59:23;;;;;;;6.83;2.50;;;18.30;51.30;;;;;;1843413;77;21071;-76
2021/04/27 11:01:49;;;;;;;8.73;2.95;;;18.50;51.10;;;;;;1843434;78;21106;-76
2021/04/27 11:04:15;;;;;;;4.00;2.62;;;18.80;50.30;;;;;;1843646;78;21494;-76
2021/04/27 11:06:41;;;;;;;4.87;2.42;;;18.50;51.50;;;;;;1843321;78;21514;-76
2021/04/27 11:09:08;;;;;;;5.55;3.05;;;18.80;51.90;;;;;;1843667;78;21145;-77
2021/04/27 11:11:34;;;;;;;5.10;3.25;;;18.50;53.20;;;;;;1843685;77;21126;-77
2021/04/27 11:14:00;;;;;;;4.10;2.42;;;18.30;54.20;;;;;;1843785;77;21052;-77
2021/04/27 11:16:26;;;;;;;6.62;2.65;;;17.90;54.00;;;;;;1843703;78;21083;-77
2021/04/27 11:18:52;;;;;;;5.53;2.50;;;17.70;55.30;;;;;;1848340;77;21086;-77
2021/04/27 11:21:19;;;;;;;6.15;2.85;;;18.40;55.20;;;;;;1855920;77;21070;-78
2021/04/27 11:23:45;;;;;;;3.83;2.72;;;19.00;55.10;;;;;;1855903;77;21533;-78
2021/04/27 11:26:13;;;;;;;4.53;2.47;;;18.70;54.00;;;;;;1855639;77;21044;-77
2021/04/27 11:28:40;;;;;;;6.37;2.65;;;19.00;54.80;;;;;;1855665;76;21136;-76
2021/04/27 11:31:06;;;;;;;4.95;2.30;;;19.60;53.90;;;;;;1855738;76;21074;-77
2021/04/27 11:33:32;;;;;;;3.50;2.47;;;19.00;52.20;;;;;;1855687;77;21140;-77
2021/04/27 11:35:58;;;;;;;6.37;2.60;;;19.00;53.60;;;;;;1855805;77;21074;-77
2021/04/27 11:38:24;;;;;;;8.95;2.90;;;19.30;50.60;;;;;;1855972;77;21164;-77
2021/04/27 11:40:51;;;;;;;6.17;3.02;;;19.80;50.80;;;;;;1844477;77;21046;-77
2021/04/27 11:43:17;;;;;;;6.55;3.00;;;19.90;51.60;;;;;;1855626;77;21126;-77
2021/04/27 11:45:43;;;;;;;5.22;2.98;;;19.90;52.70;;;;;;1855855;77;21090;-77
2021/04/27 11:48:09;;;;;;;7.95;3.00;;;20.20;52.30;;;;;;1855621;77;21152;-77
2021/04/27 11:50:35;;;;;;;9.23;3.52;;;20.30;51.50;;;;;;1855824;76;21043;-77
2021/04/27 11:53:02;;;;;;;4.50;2.45;;;20.00;52.50;;;;;;1855781;77;21156;-77
2021/04/27 11:55:29;;;;;;;4.60;2.90;;;20.10;51.90;;;;;;1856096;77;21094;-77
2021/04/27 11:57:55;;;;;;;6.62;2.87;;;19.30;53.00;;;;;;1855682;77;21118;-77
2021/04/27 12:00:21;;;;;;;7.03;2.75;;;19.60;53.20;;;;;;1855800;77;21047;-77
2021/04/27 12:02:47;;;;;;;7.67;2.83;;;20.60;51.90;;;;;;1855746;77;21070;-77
2021/04/27 12:05:13;;;;;;;7.53;3.12;;;20.20;52.00;;;;;;1855607;77;21636;-77
2021/04/27 12:07:39;;;;;;;4.58;2.52;;;20.90;51.40;;;;;;1855561;77;21528;-78
2021/04/27 12:10:05;;;;;;;8.23;3.47;;;20.80;51.70;;;;;;1855814;76;21474;-77
2021/04/27 12:12:31;;;;;;;6.83;2.95;;;20.80;50.80;;;;;;1855675;77;21443;-77
2021/04/27 12:14:58;;;;;;;5.75;3.00;;;20.90;51.20;;;;;;1855809;77;21467;-77
2021/04/27 12:17:25;;;;;;;5.55;2.90;;;21.80;49.40;;;;;;1855627;77;21184;-78
2021/04/27 12:19:51;;;;;;;3.67;2.42;;;22.00;47.80;;;;;;1855639;77;21143;-77
2021/04/27 12:22:17;;;;;;;9.78;2.80;;;21.70;49.20;;;;;;1855959;76;21047;-77
2021/04/27 12:24:44;;;;;;;5.90;3.35;;;21.10;49.40;;;;;;1855663;77;21082;-78
2021/04/27 12:27:12;;;;;;;8.10;2.92;;;21.20;48.50;;;;;;1855733;77;21078;-77
2021/04/27 12:29:38;;;;;;;11.85;2.95;;;21.50;48.40;;;;;;1855707;74;21478;-78
2021/04/27 12:32:04;;;;;;;12.85;2.12;;;22.20;48.00;;;;;;1855786;76;21619;-77
2021/04/27 12:34:30;;;;;;;3.85;2.00;;;22.60;43.10;;;;;;1855664;77;21471;-78
2021/04/27 12:36:56;;;;;;;5.22;2.85;;;21.70;42.70;;;;;;1855703;76;21552;-78
2021/04/27 12:39:22;;;;;;;7.25;2.95;;;21.50;42.60;;;;;;1855708;77;21145;-78
2021/04/27 12:41:48;;;;;;;9.48;2.72;;;22.00;43.00;;;;;;1855746;77;21140;-77
2021/04/27 12:44:15;;;;;;;14.07;2.87;;;22.30;41.50;;;;;;1855714;76;21148;-79
2021/04/27 12:46:41;;;;;;;4.58;2.35;;;22.50;41.60;;;;;;1855756;76;21043;-79
2021/04/27 12:49:07;;;;;;;5.87;2.70;;;22.20;41.70;;;;;;1855765;77;21090;-81
2021/04/27 12:51:33;;;;;;;4.60;2.47;;;22.00;46.20;;;;;;1843887;77;21046;-82
2021/04/27 12:53:59;;;;;;;5.45;3.27;;;22.90;45.70;;;;;;1855815;77;21592;-80